KEKN/EKN METAR and TAF weather

Enter ICAO airport designator
Station Type Date Time Source
KEKN METAR 2020/07/09 08:10 UTC NOAA

KEKN 090810Z AUTO 00000KT 1/2SM FG OVC004 18/17 A3002 RMK AO2 T01830172


Station Type Date Time Source
KEKN Decoded METAR 2020/07/09 08:10 UTC NOAA

JENNINGS RANDOLPH FIELD, WV, United States (KEKN) 38-53N 079-51W 603M
Jul 09, 2020 - 04:10 AM EDT / 2020.07.09 0810 UTC
Wind: Calm:0
Visibility: 1/2 mile(s):0
Sky conditions: overcast
Weather: fog
Temperature: 64.9 F (18.3 C)
Dew Point: 63.0 F (17.2 C)
Relative Humidity: 93%
Pressure (altimeter): 30.02 in. Hg (1016 hPa)
ob: KEKN 090810Z AUTO 00000KT 1/2SM FG OVC004 18/17 A3002 RMK AO2 T01830172
cycle: 8

Station Type Date Time Source
KEKN TAF 2020/07/09 06:24 UTC NOAA

TAF KEKN 090523Z 0906/1006 00000KT 1/4SM FG VV001
FM091300 00000KT P6SM FEW180
FM091500 VRB03KT P6SM FEW040
FM100200 00000KT P6SM FEW250

Example: see airport list